JBU436 MDST-KJFK
Flight info
| Callsign | JBU436 |
|---|---|
| Flight time | 3h 20m |
| Altitude | 34000 |
| Route | LERED2U LERED DCT LNHOM/M079F340 L452 OXANA/N0465F340 AR8 ECG DCT KALDA Q108 SIE CAMRN5 |
| Aircraft | A21N/M-SDE2E3FGHIRWXY/LB1 |
Departure
| Time | 2026-05-07 21:33 |
|---|---|
| Airport | Cibao International Airport (MDST) |
Arrival
| Time | 2026-05-08 00:53 |
|---|---|
| Airport | John F. Kennedy International Airport (KJFK) |
| Time | Latitude | Longitude | Altitude | Speed | Heading |
|---|---|---|---|---|---|
| 2026-05-07 20:55 | 19.40215 | -70.59950 | 633 ft | 0 kts | 194° |
| 2026-05-07 21:22 | 19.40220 | -70.59949 | 633 ft | 2 kts | 194° |
| 2026-05-07 21:23 | 19.40235 | -70.59945 | 633 ft | 2 kts | 194° |
| 2026-05-07 21:23 | 19.40249 | -70.59940 | 633 ft | 2 kts | 194° |
| 2026-05-07 21:23 | 19.40264 | -70.59937 | 634 ft | 2 kts | 194° |
| 2026-05-07 21:23 | 19.40278 | -70.59933 | 634 ft | 2 kts | 194° |
| 2026-05-07 21:24 | 19.40292 | -70.59926 | 634 ft | 2 kts | 227° |
| 2026-05-07 21:24 | 19.40300 | -70.59912 | 635 ft | 2 kts | 256° |
| 2026-05-07 21:24 | 19.40301 | -70.59899 | 635 ft | 1 kts | 283° |
| 2026-05-07 21:24 | 19.40301 | -70.59897 | 635 ft | 0 kts | 284° |
| 2026-05-07 21:27 | 19.40301 | -70.59899 | 635 ft | 1 kts | 283° |
| 2026-05-07 21:27 | 19.40310 | -70.59938 | 635 ft | 9 kts | 283° |
| 2026-05-07 21:28 | 19.40330 | -70.60032 | 635 ft | 16 kts | 283° |
| 2026-05-07 21:28 | 19.40361 | -70.60175 | 635 ft | 21 kts | 282° |
| 2026-05-07 21:28 | 19.40394 | -70.60328 | 636 ft | 20 kts | 282° |
| 2026-05-07 21:28 | 19.40420 | -70.60435 | 636 ft | 8 kts | 304° |
| 2026-05-07 21:29 | 19.40474 | -70.60441 | 637 ft | 7 kts | 10° |
| 2026-05-07 21:29 | 19.40528 | -70.60429 | 638 ft | 8 kts | 13° |
| 2026-05-07 21:29 | 19.40592 | -70.60432 | 640 ft | 10 kts | 320° |
| 2026-05-07 21:29 | 19.40618 | -70.60511 | 640 ft | 13 kts | 281° |
| 2026-05-07 21:30 | 19.40640 | -70.60613 | 640 ft | 15 kts | 283° |
| 2026-05-07 21:30 | 19.40667 | -70.60733 | 639 ft | 18 kts | 283° |
| 2026-05-07 21:30 | 19.40698 | -70.60877 | 638 ft | 20 kts | 282° |
| 2026-05-07 21:30 | 19.40731 | -70.61025 | 640 ft | 21 kts | 283° |
| 2026-05-07 21:31 | 19.40767 | -70.61184 | 640 ft | 23 kts | 282° |
| 2026-05-07 21:31 | 19.40804 | -70.61356 | 640 ft | 24 kts | 284° |
| 2026-05-07 21:31 | 19.40843 | -70.61530 | 643 ft | 23 kts | 283° |
| 2026-05-07 21:31 | 19.40842 | -70.61653 | 642 ft | 9 kts | 267° |
| 2026-05-07 21:32 | 19.40865 | -70.61661 | 642 ft | 0 kts | 111° |
| 2026-05-07 21:32 | 19.40863 | -70.61652 | 642 ft | 4 kts | 100° |
| 2026-05-07 21:32 | 19.40813 | -70.61404 | 641 ft | 72 kts | 103° |
| 2026-05-07 21:32 | 19.40641 | -70.60621 | 641 ft | 140 kts | 103° |
| 2026-05-07 21:33 | 19.40377 | -70.59444 | 751 ft | 181 kts | 105° |
| 2026-05-07 21:33 | 19.40055 | -70.58148 | 1394 ft | 181 kts | 103° |
| 2026-05-07 21:33 | 19.39775 | -70.56882 | 2111 ft | 180 kts | 100° |
| 2026-05-07 21:33 | 19.39501 | -70.55594 | 2678 ft | 181 kts | 100° |
| 2026-05-07 21:34 | 19.39234 | -70.54240 | 2914 ft | 192 kts | 101° |
| 2026-05-07 21:34 | 19.38948 | -70.52814 | 3165 ft | 203 kts | 102° |
| 2026-05-07 21:34 | 19.38635 | -70.51334 | 3469 ft | 212 kts | 99° |
| 2026-05-07 21:34 | 19.38553 | -70.49740 | 3722 ft | 227 kts | 88° |
| 2026-05-07 21:35 | 19.38681 | -70.47980 | 3942 ft | 246 kts | 85° |
| 2026-05-07 21:35 | 19.38850 | -70.46140 | 4271 ft | 261 kts | 85° |
| 2026-05-07 21:35 | 19.39018 | -70.44190 | 4749 ft | 269 kts | 84° |
| 2026-05-07 21:35 | 19.39334 | -70.42245 | 5359 ft | 272 kts | 65° |
| 2026-05-07 21:36 | 19.40486 | -70.40692 | 5986 ft | 273 kts | 36° |
| 2026-05-07 21:36 | 19.42213 | -70.39850 | 6591 ft | 277 kts | 8° |
| 2026-05-07 21:36 | 19.44153 | -70.39829 | 7219 ft | 280 kts | 356° |
| 2026-05-07 21:36 | 19.46098 | -70.39954 | 7855 ft | 283 kts | 356° |
| 2026-05-07 21:37 | 19.48068 | -70.40071 | 8466 ft | 285 kts | 356° |
| 2026-05-07 21:37 | 19.50071 | -70.40180 | 9123 ft | 285 kts | 356° |
| 2026-05-07 21:37 | 19.52056 | -70.40303 | 9687 ft | 288 kts | 355° |
| 2026-05-07 21:37 | 19.54079 | -70.40428 | 10311 ft | 288 kts | 356° |
| 2026-05-07 21:38 | 19.56097 | -70.40536 | 10654 ft | 300 kts | 356° |
| 2026-05-07 21:38 | 19.58249 | -70.40656 | 10889 ft | 315 kts | 355° |
| 2026-05-07 21:38 | 19.60490 | -70.40776 | 11151 ft | 327 kts | 355° |
| 2026-05-07 21:38 | 19.62788 | -70.40916 | 11386 ft | 340 kts | 356° |
| 2026-05-07 21:39 | 19.65202 | -70.41048 | 11755 ft | 348 kts | 356° |
| 2026-05-07 21:39 | 19.67651 | -70.41178 | 12273 ft | 351 kts | 356° |
| 2026-05-07 21:39 | 19.70110 | -70.41322 | 12791 ft | 353 kts | 356° |
| 2026-05-07 21:39 | 19.72585 | -70.41460 | 13317 ft | 354 kts | 356° |
| 2026-05-07 21:40 | 19.75880 | -70.41641 | 14019 ft | 358 kts | 356° |
| 2026-05-07 21:40 | 19.77547 | -70.41730 | 14319 ft | 359 kts | 356° |
| 2026-05-07 21:40 | 19.80035 | -70.41865 | 14735 ft | 362 kts | 356° |
| 2026-05-07 21:40 | 19.82572 | -70.42004 | 15205 ft | 364 kts | 356° |
| 2026-05-07 21:41 | 19.85136 | -70.42145 | 15617 ft | 366 kts | 356° |
| 2026-05-07 21:41 | 19.87680 | -70.42284 | 16027 ft | 369 kts | 356° |
| 2026-05-07 21:41 | 19.90278 | -70.42423 | 16419 ft | 370 kts | 357° |
| 2026-05-07 21:41 | 19.92855 | -70.42561 | 16803 ft | 373 kts | 357° |
| 2026-05-07 21:42 | 19.95475 | -70.42699 | 17158 ft | 375 kts | 357° |
| 2026-05-07 21:42 | 19.98103 | -70.42838 | 17550 ft | 377 kts | 357° |
| 2026-05-07 21:42 | 20.00743 | -70.42977 | 17934 ft | 379 kts | 357° |
| 2026-05-07 21:42 | 20.03406 | -70.43118 | 18316 ft | 380 kts | 357° |
| 2026-05-07 21:43 | 20.06068 | -70.43260 | 18667 ft | 381 kts | 357° |
| 2026-05-07 21:43 | 20.08730 | -70.43407 | 19029 ft | 382 kts | 357° |
| 2026-05-07 21:43 | 20.11407 | -70.43553 | 19369 ft | 383 kts | 358° |
| 2026-05-07 21:43 | 20.14077 | -70.43699 | 19724 ft | 385 kts | 358° |
| 2026-05-07 21:44 | 20.16766 | -70.43845 | 20083 ft | 385 kts | 358° |
| 2026-05-07 21:44 | 20.19478 | -70.43994 | 20400 ft | 386 kts | 358° |
| 2026-05-07 21:44 | 20.22178 | -70.44138 | 20696 ft | 387 kts | 358° |
| 2026-05-07 21:44 | 20.24880 | -70.44278 | 20991 ft | 389 kts | 358° |
| 2026-05-07 21:45 | 20.27613 | -70.44424 | 21305 ft | 390 kts | 358° |
| 2026-05-07 21:45 | 20.30346 | -70.44571 | 21654 ft | 391 kts | 358° |
| 2026-05-07 21:45 | 20.33040 | -70.44717 | 21987 ft | 391 kts | 358° |
| 2026-05-07 21:45 | 20.35793 | -70.44865 | 22318 ft | 392 kts | 358° |
| 2026-05-07 21:46 | 20.38527 | -70.45014 | 22631 ft | 392 kts | 358° |
| 2026-05-07 21:46 | 20.41250 | -70.45252 | 22887 ft | 395 kts | 355° |
| 2026-05-07 21:46 | 20.44023 | -70.45567 | 23149 ft | 398 kts | 355° |
| 2026-05-07 21:46 | 20.46777 | -70.45889 | 23438 ft | 399 kts | 355° |
| 2026-05-07 21:47 | 20.49578 | -70.46220 | 23707 ft | 401 kts | 355° |
| 2026-05-07 21:47 | 20.52357 | -70.46549 | 23976 ft | 403 kts | 355° |
| 2026-05-07 21:47 | 20.55163 | -70.46879 | 24245 ft | 405 kts | 355° |
| 2026-05-07 21:47 | 20.57982 | -70.47212 | 24502 ft | 407 kts | 355° |
| 2026-05-07 21:48 | 20.60843 | -70.47549 | 24765 ft | 407 kts | 355° |
| 2026-05-07 21:48 | 20.63683 | -70.47884 | 24996 ft | 410 kts | 355° |
| 2026-05-07 21:48 | 20.66532 | -70.48223 | 25242 ft | 412 kts | 355° |
| 2026-05-07 21:48 | 20.69393 | -70.48563 | 25482 ft | 413 kts | 355° |
| 2026-05-07 21:49 | 20.72292 | -70.48907 | 25714 ft | 415 kts | 355° |
| 2026-05-07 21:49 | 20.75166 | -70.49247 | 25928 ft | 417 kts | 355° |
| 2026-05-07 21:49 | 20.78105 | -70.49596 | 26162 ft | 419 kts | 355° |
| 2026-05-07 21:49 | 20.81009 | -70.49939 | 26391 ft | 421 kts | 354° |
| 2026-05-07 21:50 | 20.83930 | -70.50285 | 26609 ft | 423 kts | 355° |
| 2026-05-07 21:50 | 20.86883 | -70.50635 | 26824 ft | 423 kts | 354° |
| 2026-05-07 21:50 | 20.89817 | -70.50980 | 27024 ft | 425 kts | 354° |
| 2026-05-07 21:50 | 20.92794 | -70.51333 | 27213 ft | 427 kts | 354° |
| 2026-05-07 21:51 | 20.95746 | -70.51681 | 27412 ft | 427 kts | 354° |
| 2026-05-07 21:51 | 20.98753 | -70.52042 | 27592 ft | 430 kts | 354° |
| 2026-05-07 21:51 | 21.01732 | -70.52399 | 27780 ft | 432 kts | 354° |
| 2026-05-07 21:51 | 21.04730 | -70.52758 | 27994 ft | 433 kts | 354° |
| 2026-05-07 21:52 | 21.07769 | -70.53120 | 28197 ft | 435 kts | 354° |
| 2026-05-07 21:52 | 21.10770 | -70.53476 | 28384 ft | 437 kts | 354° |
| 2026-05-07 21:52 | 21.13815 | -70.53838 | 28568 ft | 439 kts | 354° |
| 2026-05-07 21:52 | 21.16875 | -70.54203 | 28781 ft | 440 kts | 354° |
| 2026-05-07 21:53 | 21.19918 | -70.54562 | 29029 ft | 441 kts | 354° |
| 2026-05-07 21:53 | 21.22985 | -70.54925 | 29345 ft | 440 kts | 354° |
| 2026-05-07 21:53 | 21.26047 | -70.55286 | 29682 ft | 438 kts | 354° |
| 2026-05-07 21:53 | 21.29089 | -70.55649 | 29970 ft | 438 kts | 354° |
| 2026-05-07 21:54 | 21.32113 | -70.56011 | 30293 ft | 437 kts | 354° |
| 2026-05-07 21:54 | 21.35142 | -70.56374 | 30616 ft | 436 kts | 354° |
| 2026-05-07 21:54 | 21.38185 | -70.56739 | 30968 ft | 434 kts | 354° |
| 2026-05-07 21:54 | 21.41158 | -70.57095 | 31304 ft | 432 kts | 354° |
| 2026-05-07 21:55 | 21.44183 | -70.57457 | 31615 ft | 432 kts | 353° |
| 2026-05-07 21:55 | 21.47169 | -70.57812 | 31918 ft | 431 kts | 353° |
| 2026-05-07 21:55 | 21.50211 | -70.58176 | 32264 ft | 429 kts | 353° |
| 2026-05-07 21:55 | 21.53195 | -70.58531 | 32548 ft | 429 kts | 353° |
| 2026-05-07 21:56 | 21.56149 | -70.58884 | 32757 ft | 429 kts | 353° |
| 2026-05-07 21:56 | 21.59153 | -70.59244 | 32954 ft | 430 kts | 353° |
| 2026-05-07 21:56 | 21.62167 | -70.59600 | 33166 ft | 431 kts | 353° |
| 2026-05-07 21:56 | 21.65152 | -70.59956 | 33422 ft | 431 kts | 353° |
| 2026-05-07 21:57 | 21.68175 | -70.60316 | 33699 ft | 430 kts | 353° |
| 2026-05-07 21:57 | 21.71174 | -70.60674 | 33965 ft | 430 kts | 353° |
| 2026-05-07 21:57 | 21.77171 | -70.61391 | 34013 ft | 430 kts | 353° |
| 2026-05-07 21:58 | 21.83174 | -70.62106 | 34017 ft | 431 kts | 353° |
| 2026-05-07 21:58 | 21.89203 | -70.62826 | 34018 ft | 431 kts | 353° |
| 2026-05-07 21:59 | 21.95174 | -70.63542 | 34018 ft | 430 kts | 353° |
| 2026-05-07 21:59 | 22.01186 | -70.64269 | 34017 ft | 428 kts | 353° |
| 2026-05-07 22:00 | 22.07053 | -70.64977 | 34018 ft | 429 kts | 353° |
| 2026-05-07 22:00 | 22.12965 | -70.65683 | 34022 ft | 431 kts | 353° |
| 2026-05-07 22:01 | 22.18835 | -70.66389 | 34025 ft | 430 kts | 353° |
| 2026-05-07 22:01 | 22.24812 | -70.67110 | 34025 ft | 429 kts | 353° |
| 2026-05-07 22:02 | 22.30754 | -70.67827 | 34025 ft | 430 kts | 353° |
| 2026-05-07 22:02 | 22.36719 | -70.68555 | 34025 ft | 429 kts | 353° |
| 2026-05-07 22:03 | 22.42736 | -70.69284 | 34028 ft | 429 kts | 353° |
| 2026-05-07 22:03 | 22.48728 | -70.70007 | 34028 ft | 430 kts | 353° |
| 2026-05-07 22:04 | 22.54698 | -70.70731 | 34029 ft | 430 kts | 353° |
| 2026-05-07 22:04 | 22.60705 | -70.71458 | 34030 ft | 429 kts | 353° |
| 2026-05-07 22:05 | 22.66717 | -70.72188 | 34029 ft | 429 kts | 353° |
| 2026-05-07 22:05 | 22.72675 | -70.72910 | 34031 ft | 429 kts | 353° |
| 2026-05-07 22:06 | 22.78631 | -70.73634 | 34032 ft | 429 kts | 353° |
| 2026-05-07 22:06 | 22.84595 | -70.74358 | 34031 ft | 429 kts | 353° |
| 2026-05-07 22:07 | 22.90559 | -70.75080 | 34034 ft | 429 kts | 353° |
| 2026-05-07 22:07 | 22.96517 | -70.75804 | 34033 ft | 429 kts | 353° |
| 2026-05-07 22:08 | 23.02511 | -70.76531 | 34035 ft | 430 kts | 353° |
| 2026-05-07 22:08 | 23.08523 | -70.77263 | 34037 ft | 429 kts | 352° |
| 2026-05-07 22:09 | 23.14465 | -70.77990 | 34037 ft | 430 kts | 352° |
| 2026-05-07 22:09 | 23.20437 | -70.78723 | 34036 ft | 429 kts | 352° |
| 2026-05-07 22:10 | 23.26432 | -70.79459 | 34036 ft | 429 kts | 352° |
| 2026-05-07 22:10 | 23.32352 | -70.80187 | 34038 ft | 428 kts | 352° |
| 2026-05-07 22:11 | 23.38291 | -70.80916 | 34040 ft | 428 kts | 352° |
| 2026-05-07 22:11 | 23.44253 | -70.81648 | 34038 ft | 428 kts | 352° |
| 2026-05-07 22:12 | 23.50212 | -70.82381 | 34038 ft | 429 kts | 352° |
| 2026-05-07 22:12 | 23.56186 | -70.83115 | 34035 ft | 428 kts | 352° |
| 2026-05-07 22:13 | 23.62120 | -70.83847 | 34036 ft | 428 kts | 352° |
| 2026-05-07 22:13 | 23.68038 | -70.84574 | 34035 ft | 428 kts | 352° |
| 2026-05-07 22:14 | 23.73989 | -70.85308 | 34038 ft | 428 kts | 352° |
| 2026-05-07 22:14 | 23.79916 | -70.86038 | 34035 ft | 429 kts | 352° |
| 2026-05-07 22:15 | 23.85900 | -70.86777 | 34036 ft | 429 kts | 352° |
| 2026-05-07 22:15 | 23.91826 | -70.87508 | 34036 ft | 428 kts | 352° |
| 2026-05-07 22:16 | 23.97801 | -70.88246 | 34034 ft | 428 kts | 352° |
| 2026-05-07 22:16 | 24.03717 | -70.88978 | 34036 ft | 427 kts | 352° |
| 2026-05-07 22:17 | 24.09645 | -70.89710 | 34036 ft | 428 kts | 352° |
| 2026-05-07 22:17 | 24.15591 | -70.90446 | 34041 ft | 429 kts | 352° |
| 2026-05-07 22:18 | 24.24497 | -70.91553 | 34038 ft | 427 kts | 352° |
| 2026-05-07 22:19 | 24.30413 | -70.92288 | 34040 ft | 427 kts | 352° |
| 2026-05-07 22:19 | 24.36350 | -70.93023 | 34046 ft | 427 kts | 352° |
| 2026-05-07 22:20 | 24.42261 | -70.93757 | 34044 ft | 428 kts | 352° |
| 2026-05-07 22:20 | 24.48179 | -70.94492 | 34047 ft | 427 kts | 352° |
| 2026-05-07 22:21 | 24.54126 | -70.95241 | 34047 ft | 428 kts | 352° |
| 2026-05-07 22:21 | 24.60084 | -70.95991 | 34049 ft | 426 kts | 352° |
| 2026-05-07 22:22 | 24.65972 | -70.96732 | 34049 ft | 427 kts | 352° |
| 2026-05-07 22:22 | 24.71941 | -70.97482 | 34056 ft | 427 kts | 352° |
| 2026-05-07 22:23 | 24.77848 | -70.98220 | 34054 ft | 428 kts | 352° |
| 2026-05-07 22:23 | 24.83823 | -70.98964 | 34056 ft | 428 kts | 352° |
| 2026-05-07 22:24 | 24.89720 | -70.99699 | 34056 ft | 428 kts | 352° |
| 2026-05-07 22:24 | 24.95673 | -71.00450 | 34053 ft | 428 kts | 352° |
| 2026-05-07 22:25 | 25.01579 | -71.01457 | 34056 ft | 427 kts | 347° |
| 2026-05-07 22:25 | 25.07340 | -71.02940 | 34057 ft | 426 kts | 345° |
| 2026-05-07 22:26 | 25.13127 | -71.04478 | 34057 ft | 427 kts | 345° |
| 2026-05-07 22:26 | 25.18908 | -71.06028 | 34057 ft | 427 kts | 345° |
| 2026-05-07 22:27 | 25.24723 | -71.07577 | 34057 ft | 427 kts | 345° |
| 2026-05-07 22:27 | 25.30463 | -71.09106 | 34056 ft | 426 kts | 345° |
| 2026-05-07 22:28 | 25.36236 | -71.10648 | 34057 ft | 426 kts | 345° |
| 2026-05-07 22:28 | 25.42006 | -71.12190 | 34057 ft | 426 kts | 345° |
| 2026-05-07 22:29 | 25.47800 | -71.13741 | 34057 ft | 426 kts | 345° |
| 2026-05-07 22:29 | 25.53577 | -71.15292 | 34056 ft | 427 kts | 345° |
| 2026-05-07 22:30 | 25.59374 | -71.16845 | 34057 ft | 427 kts | 345° |
| 2026-05-07 22:30 | 25.65138 | -71.18389 | 34058 ft | 426 kts | 345° |
| 2026-05-07 22:31 | 25.70892 | -71.19936 | 34056 ft | 425 kts | 345° |
| 2026-05-07 22:31 | 25.76616 | -71.21476 | 34057 ft | 425 kts | 345° |
| 2026-05-07 22:32 | 25.82400 | -71.23034 | 34058 ft | 426 kts | 345° |
| 2026-05-07 22:32 | 25.88132 | -71.24580 | 34057 ft | 426 kts | 345° |
| 2026-05-07 22:33 | 25.93937 | -71.26148 | 34057 ft | 426 kts | 345° |
| 2026-05-07 22:33 | 25.99674 | -71.27696 | 34057 ft | 425 kts | 345° |
| 2026-05-07 22:34 | 26.05426 | -71.29246 | 34056 ft | 424 kts | 345° |
| 2026-05-07 22:34 | 26.11162 | -71.30791 | 34058 ft | 425 kts | 345° |
| 2026-05-07 22:35 | 26.16922 | -71.32348 | 34057 ft | 425 kts | 345° |
| 2026-05-07 22:35 | 26.22697 | -71.33917 | 34057 ft | 425 kts | 345° |
| 2026-05-07 22:36 | 26.28437 | -71.35480 | 34057 ft | 425 kts | 345° |
| 2026-05-07 22:36 | 26.34189 | -71.37051 | 34058 ft | 425 kts | 345° |
| 2026-05-07 22:37 | 26.39933 | -71.38614 | 34056 ft | 425 kts | 345° |
| 2026-05-07 22:37 | 26.45682 | -71.40174 | 34057 ft | 425 kts | 345° |
| 2026-05-07 22:38 | 26.51459 | -71.41747 | 34057 ft | 426 kts | 345° |
| 2026-05-07 22:38 | 26.57184 | -71.43308 | 34058 ft | 425 kts | 345° |
| 2026-05-07 22:39 | 26.62966 | -71.44894 | 34057 ft | 425 kts | 345° |
| 2026-05-07 22:39 | 26.68690 | -71.46455 | 34057 ft | 424 kts | 344° |
| 2026-05-07 22:40 | 26.74414 | -71.48023 | 34057 ft | 425 kts | 345° |
| 2026-05-07 22:40 | 26.80170 | -71.49605 | 34057 ft | 425 kts | 344° |
| 2026-05-07 22:41 | 26.85940 | -71.51190 | 34057 ft | 425 kts | 344° |
| 2026-05-07 22:41 | 26.91675 | -71.52769 | 34057 ft | 425 kts | 344° |
| 2026-05-07 22:42 | 26.97449 | -71.54359 | 34057 ft | 425 kts | 344° |
| 2026-05-07 22:42 | 27.03204 | -71.55946 | 34058 ft | 425 kts | 344° |
| 2026-05-07 22:43 | 27.08923 | -71.57525 | 34057 ft | 425 kts | 344° |
| 2026-05-07 22:43 | 27.14688 | -71.59116 | 34057 ft | 424 kts | 344° |
| 2026-05-07 22:44 | 27.20417 | -71.60693 | 34059 ft | 425 kts | 344° |
| 2026-05-07 22:44 | 27.26160 | -71.62282 | 34057 ft | 425 kts | 344° |
| 2026-05-07 22:45 | 27.31902 | -71.63871 | 34058 ft | 425 kts | 344° |
| 2026-05-07 22:45 | 27.37672 | -71.65466 | 34059 ft | 425 kts | 343° |
| 2026-05-07 22:46 | 27.43157 | -71.66985 | 34057 ft | 425 kts | 343° |
| 2026-05-07 22:46 | 27.48910 | -71.68592 | 34058 ft | 425 kts | 343° |
| 2026-05-07 22:47 | 27.54657 | -71.70193 | 34057 ft | 426 kts | 343° |
| 2026-05-07 22:47 | 27.60436 | -71.71800 | 34059 ft | 426 kts | 343° |
| 2026-05-07 22:48 | 27.66156 | -71.73396 | 34057 ft | 426 kts | 343° |
| 2026-05-07 22:48 | 27.71932 | -71.75009 | 34058 ft | 425 kts | 343° |
| 2026-05-07 22:49 | 27.77691 | -71.76618 | 34057 ft | 426 kts | 342° |
| 2026-05-07 22:49 | 27.83419 | -71.78221 | 34058 ft | 426 kts | 343° |
| 2026-05-07 22:50 | 27.89175 | -71.79829 | 34056 ft | 426 kts | 343° |
| 2026-05-07 22:50 | 27.94971 | -71.81448 | 34057 ft | 426 kts | 342° |
| 2026-05-07 22:51 | 28.00724 | -71.83064 | 34059 ft | 426 kts | 342° |
| 2026-05-07 22:51 | 28.06474 | -71.84679 | 34057 ft | 425 kts | 342° |
| 2026-05-07 22:52 | 28.12224 | -71.86304 | 34060 ft | 426 kts | 342° |
| 2026-05-07 22:52 | 28.17987 | -71.87931 | 34057 ft | 426 kts | 342° |
| 2026-05-07 22:53 | 28.23762 | -71.89555 | 34060 ft | 427 kts | 342° |
| 2026-05-07 22:53 | 28.29547 | -71.91183 | 34060 ft | 427 kts | 342° |
| 2026-05-07 22:54 | 28.35335 | -71.92825 | 34061 ft | 428 kts | 342° |
| 2026-05-07 22:54 | 28.41125 | -71.94466 | 34060 ft | 427 kts | 342° |
| 2026-05-07 22:55 | 28.46910 | -71.96107 | 34058 ft | 427 kts | 342° |
| 2026-05-07 22:55 | 28.52696 | -71.97748 | 34058 ft | 428 kts | 342° |
| 2026-05-07 22:56 | 28.58477 | -71.99384 | 34060 ft | 429 kts | 342° |
| 2026-05-07 22:56 | 28.64330 | -72.01044 | 34059 ft | 428 kts | 342° |
| 2026-05-07 22:57 | 28.70134 | -72.02693 | 34059 ft | 428 kts | 342° |
| 2026-05-07 22:57 | 28.75913 | -72.04338 | 34062 ft | 428 kts | 342° |
| 2026-05-07 22:58 | 28.81746 | -72.05998 | 34058 ft | 428 kts | 342° |
| 2026-05-07 22:58 | 28.87505 | -72.07640 | 34060 ft | 428 kts | 342° |
| 2026-05-07 22:59 | 28.93309 | -72.09295 | 34058 ft | 428 kts | 342° |
| 2026-05-07 22:59 | 28.99114 | -72.10953 | 34060 ft | 428 kts | 342° |
| 2026-05-07 23:00 | 29.04926 | -72.12611 | 34058 ft | 429 kts | 342° |
| 2026-05-07 23:00 | 29.10729 | -72.14281 | 34057 ft | 429 kts | 341° |
| 2026-05-07 23:01 | 29.16500 | -72.15942 | 34056 ft | 429 kts | 341° |
| 2026-05-07 23:01 | 29.22314 | -72.17616 | 34055 ft | 428 kts | 341° |
| 2026-05-07 23:02 | 29.28071 | -72.19273 | 34054 ft | 429 kts | 341° |
| 2026-05-07 23:02 | 29.33898 | -72.20946 | 34048 ft | 429 kts | 342° |
| 2026-05-07 23:03 | 29.39681 | -72.22598 | 34052 ft | 429 kts | 342° |
| 2026-05-07 23:03 | 29.45489 | -72.24264 | 34048 ft | 428 kts | 342° |
| 2026-05-07 23:04 | 29.51262 | -72.25930 | 34047 ft | 428 kts | 342° |
| 2026-05-07 23:04 | 29.57081 | -72.27616 | 34049 ft | 429 kts | 341° |
| 2026-05-07 23:05 | 29.62881 | -72.29300 | 34049 ft | 429 kts | 341° |
| 2026-05-07 23:05 | 29.68679 | -72.30984 | 34041 ft | 429 kts | 341° |
| 2026-05-07 23:06 | 29.74497 | -72.32674 | 34045 ft | 429 kts | 341° |
| 2026-05-07 23:06 | 29.80256 | -72.34345 | 34039 ft | 428 kts | 341° |
| 2026-05-07 23:07 | 29.86077 | -72.36042 | 34042 ft | 429 kts | 341° |
| 2026-05-07 23:07 | 29.91875 | -72.37737 | 34038 ft | 429 kts | 341° |
| 2026-05-07 23:08 | 29.97671 | -72.39428 | 34041 ft | 429 kts | 341° |
| 2026-05-07 23:08 | 30.03485 | -72.41123 | 34041 ft | 429 kts | 341° |
| 2026-05-07 23:09 | 30.09284 | -72.42818 | 34037 ft | 428 kts | 341° |
| 2026-05-07 23:09 | 30.15041 | -72.44505 | 34037 ft | 428 kts | 341° |
| 2026-05-07 23:10 | 30.20848 | -72.46228 | 34035 ft | 428 kts | 341° |
| 2026-05-07 23:10 | 30.26648 | -72.47961 | 34033 ft | 429 kts | 340° |
| 2026-05-07 23:11 | 30.32429 | -72.49684 | 34032 ft | 430 kts | 340° |
| 2026-05-07 23:11 | 30.38214 | -72.51413 | 34034 ft | 428 kts | 340° |
| 2026-05-07 23:12 | 30.43983 | -72.53135 | 34027 ft | 428 kts | 340° |
| 2026-05-07 23:12 | 30.49776 | -72.54869 | 34023 ft | 429 kts | 340° |
| 2026-05-07 23:13 | 30.55608 | -72.56618 | 34021 ft | 428 kts | 340° |
| 2026-05-07 23:13 | 30.61381 | -72.58358 | 34018 ft | 427 kts | 340° |
| 2026-05-07 23:14 | 30.67163 | -72.60104 | 34020 ft | 428 kts | 340° |
| 2026-05-07 23:14 | 30.72958 | -72.61852 | 34019 ft | 428 kts | 340° |
| 2026-05-07 23:15 | 30.78771 | -72.63605 | 34019 ft | 429 kts | 340° |
| 2026-05-07 23:15 | 30.84543 | -72.65346 | 34019 ft | 429 kts | 339° |
| 2026-05-07 23:16 | 30.90337 | -72.67098 | 34017 ft | 429 kts | 339° |
| 2026-05-07 23:16 | 30.96129 | -72.68855 | 34017 ft | 429 kts | 339° |
| 2026-05-07 23:17 | 31.01911 | -72.70606 | 34016 ft | 429 kts | 339° |
| 2026-05-07 23:17 | 31.07740 | -72.72376 | 34014 ft | 429 kts | 339° |
| 2026-05-07 23:18 | 31.13524 | -72.74136 | 34016 ft | 429 kts | 339° |
| 2026-05-07 23:18 | 31.19308 | -72.75894 | 34013 ft | 429 kts | 339° |
| 2026-05-07 23:19 | 31.25137 | -72.77667 | 34009 ft | 430 kts | 339° |
| 2026-05-07 23:19 | 31.30948 | -72.79436 | 34011 ft | 429 kts | 339° |
| 2026-05-07 23:20 | 31.36772 | -72.81213 | 34010 ft | 428 kts | 339° |
| 2026-05-07 23:20 | 31.42575 | -72.82980 | 34009 ft | 429 kts | 339° |
| 2026-05-07 23:21 | 31.48396 | -72.84755 | 34006 ft | 430 kts | 339° |
| 2026-05-07 23:21 | 31.54220 | -72.86542 | 34006 ft | 432 kts | 339° |
| 2026-05-07 23:22 | 31.60023 | -72.88321 | 34004 ft | 432 kts | 339° |
| 2026-05-07 23:22 | 31.65873 | -72.90112 | 34002 ft | 432 kts | 339° |
| 2026-05-07 23:23 | 31.71694 | -72.91903 | 34003 ft | 431 kts | 339° |
| 2026-05-07 23:23 | 31.77521 | -72.93696 | 34001 ft | 431 kts | 339° |
| 2026-05-07 23:24 | 31.83392 | -72.95503 | 33999 ft | 431 kts | 339° |
| 2026-05-07 23:24 | 31.89229 | -72.97301 | 33999 ft | 433 kts | 338° |
| 2026-05-07 23:25 | 31.95042 | -72.99100 | 33998 ft | 433 kts | 339° |
| 2026-05-07 23:25 | 32.00914 | -73.00912 | 33994 ft | 435 kts | 338° |
| 2026-05-07 23:26 | 32.06737 | -73.02723 | 33990 ft | 435 kts | 338° |
| 2026-05-07 23:26 | 32.12628 | -73.04552 | 33997 ft | 434 kts | 338° |
| 2026-05-07 23:27 | 32.21405 | -73.07282 | 33979 ft | 434 kts | 338° |
| 2026-05-07 23:27 | 32.27244 | -73.09103 | 33981 ft | 433 kts | 338° |
| 2026-05-07 23:28 | 32.33097 | -73.10931 | 33978 ft | 432 kts | 338° |
| 2026-05-07 23:28 | 32.38982 | -73.12766 | 33982 ft | 434 kts | 338° |
| 2026-05-07 23:29 | 32.44823 | -73.14590 | 33981 ft | 433 kts | 338° |
| 2026-05-07 23:29 | 32.50702 | -73.16430 | 33972 ft | 434 kts | 338° |
| 2026-05-07 23:30 | 32.56536 | -73.18264 | 33976 ft | 434 kts | 338° |
| 2026-05-07 23:30 | 32.62396 | -73.20109 | 33971 ft | 435 kts | 338° |
| 2026-05-07 23:31 | 32.68248 | -73.21949 | 33969 ft | 434 kts | 338° |
| 2026-05-07 23:31 | 32.74092 | -73.23786 | 33960 ft | 433 kts | 338° |
| 2026-05-07 23:32 | 32.79903 | -73.25617 | 33957 ft | 434 kts | 338° |
| 2026-05-07 23:32 | 32.85812 | -73.27487 | 33960 ft | 436 kts | 337° |
| 2026-05-07 23:33 | 32.91671 | -73.29337 | 33957 ft | 435 kts | 338° |
| 2026-05-07 23:33 | 32.97563 | -73.31201 | 33948 ft | 436 kts | 338° |
| 2026-05-07 23:34 | 33.03469 | -73.33067 | 33945 ft | 436 kts | 338° |
| 2026-05-07 23:34 | 33.09327 | -73.34924 | 33943 ft | 436 kts | 337° |
| 2026-05-07 23:35 | 33.15192 | -73.36791 | 33943 ft | 436 kts | 338° |
| 2026-05-07 23:35 | 33.21109 | -73.38676 | 33938 ft | 438 kts | 337° |
| 2026-05-07 23:36 | 33.27010 | -73.40556 | 33934 ft | 437 kts | 337° |
| 2026-05-07 23:36 | 33.32938 | -73.42442 | 33927 ft | 438 kts | 337° |
| 2026-05-07 23:37 | 33.38798 | -73.44318 | 33930 ft | 437 kts | 337° |
| 2026-05-07 23:37 | 33.44699 | -73.46204 | 33913 ft | 437 kts | 336° |
| 2026-05-07 23:38 | 33.50613 | -73.48102 | 33911 ft | 438 kts | 336° |
| 2026-05-07 23:38 | 33.56525 | -73.50008 | 33912 ft | 439 kts | 336° |
| 2026-05-07 23:39 | 33.62465 | -73.51925 | 33910 ft | 439 kts | 336° |
| 2026-05-07 23:39 | 33.68334 | -73.53817 | 33906 ft | 438 kts | 336° |
| 2026-05-07 23:40 | 33.74242 | -73.55723 | 33900 ft | 438 kts | 336° |
| 2026-05-07 23:40 | 33.80136 | -73.57626 | 33894 ft | 439 kts | 335° |
| 2026-05-07 23:41 | 33.86086 | -73.59552 | 33885 ft | 440 kts | 335° |
| 2026-05-07 23:41 | 33.91988 | -73.61470 | 33887 ft | 438 kts | 335° |
| 2026-05-07 23:42 | 33.97888 | -73.63390 | 33881 ft | 440 kts | 335° |
| 2026-05-07 23:42 | 34.03833 | -73.65316 | 33881 ft | 438 kts | 334° |
| 2026-05-07 23:43 | 34.09719 | -73.67233 | 33879 ft | 437 kts | 334° |
| 2026-05-07 23:43 | 34.15622 | -73.69157 | 33874 ft | 437 kts | 334° |
| 2026-05-07 23:44 | 34.21506 | -73.71070 | 33871 ft | 439 kts | 334° |
| 2026-05-07 23:44 | 34.27398 | -73.73011 | 33875 ft | 436 kts | 332° |
| 2026-05-07 23:45 | 34.32932 | -73.75616 | 33869 ft | 421 kts | 323° |
| 2026-05-07 23:45 | 34.37932 | -73.79134 | 33866 ft | 410 kts | 315° |
| 2026-05-07 23:46 | 34.42307 | -73.83416 | 33863 ft | 400 kts | 307° |
| 2026-05-07 23:46 | 34.46226 | -73.88168 | 33855 ft | 395 kts | 305° |
| 2026-05-07 23:47 | 34.50052 | -73.92898 | 33853 ft | 396 kts | 305° |
| 2026-05-07 23:47 | 34.53914 | -73.97690 | 33851 ft | 396 kts | 305° |
| 2026-05-07 23:48 | 34.57763 | -74.02456 | 33850 ft | 395 kts | 305° |
| 2026-05-07 23:48 | 34.61585 | -74.07199 | 33854 ft | 392 kts | 305° |
| 2026-05-07 23:49 | 34.65414 | -74.11951 | 33851 ft | 393 kts | 305° |
| 2026-05-07 23:49 | 34.69240 | -74.16706 | 33847 ft | 393 kts | 304° |
| 2026-05-07 23:50 | 34.73061 | -74.21475 | 33856 ft | 393 kts | 304° |
| 2026-05-07 23:50 | 34.76873 | -74.26231 | 33846 ft | 391 kts | 304° |
| 2026-05-07 23:51 | 34.80674 | -74.30991 | 33839 ft | 391 kts | 304° |
| 2026-05-07 23:51 | 34.84453 | -74.35729 | 33844 ft | 389 kts | 305° |
| 2026-05-07 23:52 | 34.88224 | -74.40449 | 33836 ft | 386 kts | 305° |
| 2026-05-07 23:52 | 34.91968 | -74.45150 | 33832 ft | 387 kts | 304° |
| 2026-05-07 23:53 | 34.95726 | -74.49873 | 33829 ft | 385 kts | 304° |
| 2026-05-07 23:53 | 34.99446 | -74.54558 | 33838 ft | 386 kts | 304° |
| 2026-05-07 23:54 | 35.03191 | -74.59286 | 33845 ft | 386 kts | 304° |
| 2026-05-07 23:54 | 35.06916 | -74.63989 | 33849 ft | 384 kts | 304° |
| 2026-05-07 23:55 | 35.10621 | -74.68671 | 33846 ft | 382 kts | 304° |
| 2026-05-07 23:55 | 35.14317 | -74.73348 | 33834 ft | 381 kts | 303° |
| 2026-05-07 23:56 | 35.18013 | -74.78040 | 33838 ft | 380 kts | 303° |
| 2026-05-07 23:56 | 35.21672 | -74.82678 | 33841 ft | 380 kts | 303° |
| 2026-05-07 23:57 | 35.25320 | -74.87321 | 33842 ft | 379 kts | 303° |
| 2026-05-07 23:57 | 35.28996 | -74.92004 | 33848 ft | 379 kts | 303° |
| 2026-05-07 23:58 | 35.32635 | -74.96647 | 33854 ft | 377 kts | 303° |
| 2026-05-07 23:58 | 35.36254 | -75.01263 | 33857 ft | 376 kts | 303° |
| 2026-05-07 23:59 | 35.39877 | -75.05896 | 33857 ft | 375 kts | 303° |
| 2026-05-07 23:59 | 35.43506 | -75.10529 | 33858 ft | 375 kts | 303° |
| 2026-05-08 00:00 | 35.47104 | -75.15144 | 33859 ft | 374 kts | 303° |
| 2026-05-08 00:00 | 35.50696 | -75.19757 | 33860 ft | 373 kts | 303° |
| 2026-05-08 00:01 | 35.54274 | -75.24355 | 33858 ft | 374 kts | 303° |
| 2026-05-08 00:01 | 35.57853 | -75.28966 | 33866 ft | 372 kts | 303° |
| 2026-05-08 00:02 | 35.61436 | -75.33585 | 33868 ft | 372 kts | 302° |
| 2026-05-08 00:02 | 35.65028 | -75.38230 | 33877 ft | 371 kts | 303° |
| 2026-05-08 00:03 | 35.68591 | -75.42832 | 33889 ft | 369 kts | 302° |
| 2026-05-08 00:03 | 35.72153 | -75.47448 | 33888 ft | 369 kts | 302° |
| 2026-05-08 00:04 | 35.75719 | -75.52070 | 33896 ft | 371 kts | 302° |
| 2026-05-08 00:04 | 35.79228 | -75.56627 | 33907 ft | 368 kts | 302° |
| 2026-05-08 00:05 | 35.82762 | -75.61227 | 33896 ft | 369 kts | 303° |
| 2026-05-08 00:05 | 35.84721 | -75.63357 | 33901 ft | 381 kts | 310° |
| 2026-05-08 00:05 | 35.86964 | -75.65192 | 33905 ft | 393 kts | 316° |
| 2026-05-08 00:06 | 35.89502 | -75.66718 | 33910 ft | 407 kts | 323° |
| 2026-05-08 00:06 | 35.92205 | -75.67831 | 33912 ft | 420 kts | 330° |
| 2026-05-08 00:06 | 35.95159 | -75.68515 | 33912 ft | 434 kts | 338° |
| 2026-05-08 00:06 | 35.98234 | -75.68690 | 33909 ft | 450 kts | 346° |
| 2026-05-08 00:07 | 36.01384 | -75.68362 | 33917 ft | 464 kts | 352° |
| 2026-05-08 00:07 | 36.04622 | -75.67828 | 33914 ft | 467 kts | 353° |
| 2026-05-08 00:07 | 36.11032 | -75.66675 | 33913 ft | 467 kts | 353° |
| 2026-05-08 00:08 | 36.17473 | -75.65525 | 33917 ft | 467 kts | 353° |
| 2026-05-08 00:08 | 36.23961 | -75.64371 | 33912 ft | 468 kts | 353° |
| 2026-05-08 00:09 | 36.30395 | -75.63235 | 33906 ft | 467 kts | 353° |
| 2026-05-08 00:09 | 36.36854 | -75.62093 | 33902 ft | 467 kts | 353° |
| 2026-05-08 00:10 | 36.43325 | -75.60950 | 33901 ft | 467 kts | 352° |
| 2026-05-08 00:10 | 36.49755 | -75.59824 | 33901 ft | 467 kts | 352° |
| 2026-05-08 00:11 | 36.56219 | -75.58694 | 33902 ft | 468 kts | 352° |
| 2026-05-08 00:11 | 36.62647 | -75.57556 | 33903 ft | 465 kts | 352° |
| 2026-05-08 00:12 | 36.69036 | -75.56424 | 33906 ft | 466 kts | 352° |
| 2026-05-08 00:12 | 36.75468 | -75.55282 | 33906 ft | 465 kts | 352° |
| 2026-05-08 00:13 | 36.81894 | -75.54150 | 33910 ft | 467 kts | 352° |
| 2026-05-08 00:13 | 36.88328 | -75.53005 | 33908 ft | 465 kts | 352° |
| 2026-05-08 00:14 | 36.94744 | -75.51862 | 33909 ft | 465 kts | 352° |
| 2026-05-08 00:14 | 37.01172 | -75.50711 | 33913 ft | 466 kts | 352° |
| 2026-05-08 00:15 | 37.07587 | -75.49561 | 33922 ft | 467 kts | 352° |
| 2026-05-08 00:15 | 37.14014 | -75.48406 | 33923 ft | 465 kts | 352° |
| 2026-05-08 00:16 | 37.20441 | -75.47253 | 33919 ft | 466 kts | 352° |
| 2026-05-08 00:16 | 37.26921 | -75.46086 | 33923 ft | 468 kts | 353° |
| 2026-05-08 00:17 | 37.33374 | -75.44916 | 33919 ft | 466 kts | 353° |
| 2026-05-08 00:17 | 37.39803 | -75.43755 | 33920 ft | 468 kts | 353° |
| 2026-05-08 00:18 | 37.46308 | -75.42576 | 33920 ft | 469 kts | 353° |
| 2026-05-08 00:18 | 37.52801 | -75.41407 | 33918 ft | 472 kts | 353° |
| 2026-05-08 00:19 | 37.59312 | -75.40226 | 33921 ft | 471 kts | 353° |
| 2026-05-08 00:19 | 37.65812 | -75.39043 | 33916 ft | 470 kts | 353° |
| 2026-05-08 00:20 | 37.72326 | -75.37849 | 33919 ft | 470 kts | 353° |
| 2026-05-08 00:20 | 37.78793 | -75.36678 | 33917 ft | 472 kts | 353° |
| 2026-05-08 00:21 | 37.85358 | -75.35479 | 33918 ft | 472 kts | 353° |
| 2026-05-08 00:21 | 37.91859 | -75.34281 | 33917 ft | 471 kts | 354° |
| 2026-05-08 00:22 | 37.98380 | -75.33083 | 33920 ft | 471 kts | 354° |
| 2026-05-08 00:22 | 38.04903 | -75.31889 | 33917 ft | 475 kts | 354° |
| 2026-05-08 00:23 | 38.11446 | -75.30675 | 33914 ft | 474 kts | 355° |
| 2026-05-08 00:23 | 38.17972 | -75.29466 | 33918 ft | 475 kts | 355° |
| 2026-05-08 00:24 | 38.24555 | -75.28246 | 33915 ft | 474 kts | 354° |
| 2026-05-08 00:24 | 38.31072 | -75.26936 | 33914 ft | 474 kts | 356° |
| 2026-05-08 00:25 | 38.37635 | -75.25535 | 33915 ft | 475 kts | 356° |
| 2026-05-08 00:25 | 38.44159 | -75.24154 | 33915 ft | 476 kts | 356° |
| 2026-05-08 00:26 | 38.50701 | -75.22778 | 33915 ft | 475 kts | 356° |
| 2026-05-08 00:26 | 38.57249 | -75.21406 | 33916 ft | 475 kts | 356° |
| 2026-05-08 00:27 | 38.63781 | -75.19836 | 33914 ft | 485 kts | 1° |
| 2026-05-08 00:27 | 38.70301 | -75.16989 | 33912 ft | 502 kts | 12° |
| 2026-05-08 00:28 | 38.76550 | -75.12628 | 33908 ft | 519 kts | 23° |
| 2026-05-08 00:28 | 38.82402 | -75.07039 | 33902 ft | 526 kts | 28° |
| 2026-05-08 00:29 | 38.88160 | -75.01253 | 33894 ft | 525 kts | 28° |
| 2026-05-08 00:29 | 38.93930 | -74.95534 | 33895 ft | 524 kts | 28° |
| 2026-05-08 00:30 | 38.99742 | -74.89793 | 33895 ft | 525 kts | 28° |
| 2026-05-08 00:30 | 39.05510 | -74.84083 | 33906 ft | 524 kts | 28° |
| 2026-05-08 00:31 | 39.08377 | -74.81241 | 33790 ft | 520 kts | 28° |
| 2026-05-08 00:31 | 39.11216 | -74.78329 | 33107 ft | 525 kts | 30° |
| 2026-05-08 00:31 | 39.14039 | -74.75330 | 32157 ft | 534 kts | 31° |
| 2026-05-08 00:31 | 39.16879 | -74.72269 | 31273 ft | 539 kts | 32° |
| 2026-05-08 00:32 | 39.19723 | -74.69189 | 30441 ft | 536 kts | 33° |
| 2026-05-08 00:32 | 39.22596 | -74.66037 | 29365 ft | 536 kts | 33° |
| 2026-05-08 00:32 | 39.25422 | -74.62943 | 28117 ft | 537 kts | 33° |
| 2026-05-08 00:32 | 39.28265 | -74.59836 | 27074 ft | 530 kts | 33° |
| 2026-05-08 00:33 | 39.31041 | -74.56821 | 26516 ft | 514 kts | 33° |
| 2026-05-08 00:33 | 39.33732 | -74.53903 | 25894 ft | 499 kts | 33° |
| 2026-05-08 00:33 | 39.36373 | -74.51040 | 25392 ft | 494 kts | 34° |
| 2026-05-08 00:33 | 39.39003 | -74.48185 | 25066 ft | 492 kts | 34° |
| 2026-05-08 00:34 | 39.41628 | -74.45321 | 24721 ft | 491 kts | 33° |
| 2026-05-08 00:34 | 39.44242 | -74.42471 | 24165 ft | 492 kts | 33° |
| 2026-05-08 00:34 | 39.46840 | -74.39640 | 23548 ft | 490 kts | 34° |
| 2026-05-08 00:34 | 39.49455 | -74.36787 | 22979 ft | 487 kts | 34° |
| 2026-05-08 00:35 | 39.52007 | -74.33994 | 22443 ft | 484 kts | 35° |
| 2026-05-08 00:35 | 39.54563 | -74.31191 | 21935 ft | 478 kts | 35° |
| 2026-05-08 00:35 | 39.57077 | -74.28425 | 21809 ft | 470 kts | 35° |
| 2026-05-08 00:35 | 39.59550 | -74.25711 | 21790 ft | 470 kts | 35° |
| 2026-05-08 00:36 | 39.62078 | -74.22942 | 21779 ft | 470 kts | 36° |
| 2026-05-08 00:36 | 39.64587 | -74.20187 | 21811 ft | 471 kts | 36° |
| 2026-05-08 00:36 | 39.67061 | -74.17464 | 21840 ft | 471 kts | 36° |
| 2026-05-08 00:36 | 39.69563 | -74.14709 | 21855 ft | 471 kts | 36° |
| 2026-05-08 00:37 | 39.72077 | -74.11939 | 21862 ft | 471 kts | 36° |
| 2026-05-08 00:37 | 39.74572 | -74.09184 | 21872 ft | 471 kts | 36° |
| 2026-05-08 00:37 | 39.77066 | -74.06425 | 21879 ft | 470 kts | 36° |
| 2026-05-08 00:38 | 39.82032 | -74.00958 | 21884 ft | 470 kts | 34° |
| 2026-05-08 00:38 | 39.84669 | -73.98426 | 21883 ft | 466 kts | 28° |
| 2026-05-08 00:38 | 39.87416 | -73.96219 | 21880 ft | 463 kts | 24° |
| 2026-05-08 00:38 | 39.90230 | -73.94208 | 21880 ft | 461 kts | 22° |
| 2026-05-08 00:39 | 39.93038 | -73.92245 | 21857 ft | 462 kts | 22° |
| 2026-05-08 00:39 | 39.95867 | -73.90254 | 21439 ft | 460 kts | 22° |
| 2026-05-08 00:39 | 39.98679 | -73.88274 | 20960 ft | 456 kts | 22° |
| 2026-05-08 00:39 | 40.01434 | -73.86332 | 20475 ft | 453 kts | 22° |
| 2026-05-08 00:40 | 40.04200 | -73.84379 | 19995 ft | 450 kts | 22° |
| 2026-05-08 00:40 | 40.06945 | -73.82438 | 19471 ft | 448 kts | 22° |
| 2026-05-08 00:40 | 40.09671 | -73.80513 | 18925 ft | 445 kts | 22° |
| 2026-05-08 00:40 | 40.12371 | -73.78608 | 18379 ft | 442 kts | 22° |
| 2026-05-08 00:41 | 40.15072 | -73.76711 | 17830 ft | 439 kts | 22° |
| 2026-05-08 00:41 | 40.17760 | -73.74827 | 17279 ft | 436 kts | 22° |
| 2026-05-08 00:41 | 40.20438 | -73.72952 | 16724 ft | 433 kts | 22° |
| 2026-05-08 00:41 | 40.23078 | -73.71115 | 16172 ft | 431 kts | 22° |
| 2026-05-08 00:42 | 40.25727 | -73.69305 | 15624 ft | 427 kts | 22° |
| 2026-05-08 00:42 | 40.28342 | -73.67529 | 15060 ft | 425 kts | 22° |
| 2026-05-08 00:42 | 40.30940 | -73.65726 | 14504 ft | 424 kts | 22° |
| 2026-05-08 00:42 | 40.33546 | -73.63860 | 13938 ft | 421 kts | 22° |
| 2026-05-08 00:43 | 40.36115 | -73.62045 | 13381 ft | 419 kts | 22° |
| 2026-05-08 00:43 | 40.38670 | -73.60252 | 12825 ft | 416 kts | 22° |
| 2026-05-08 00:43 | 40.41220 | -73.58498 | 12267 ft | 412 kts | 22° |
| 2026-05-08 00:43 | 40.43705 | -73.56783 | 11704 ft | 404 kts | 22° |
| 2026-05-08 00:44 | 40.46151 | -73.55058 | 11143 ft | 394 kts | 22° |
| 2026-05-08 00:44 | 40.48529 | -73.53367 | 10582 ft | 384 kts | 22° |
| 2026-05-08 00:44 | 40.50847 | -73.51714 | 10027 ft | 372 kts | 22° |
| 2026-05-08 00:44 | 40.53073 | -73.50136 | 9514 ft | 358 kts | 22° |
| 2026-05-08 00:45 | 40.55238 | -73.48624 | 8996 ft | 345 kts | 22° |
| 2026-05-08 00:45 | 40.57336 | -73.47182 | 8488 ft | 333 kts | 22° |
| 2026-05-08 00:45 | 40.59331 | -73.45808 | 7994 ft | 320 kts | 22° |
| 2026-05-08 00:45 | 40.61272 | -73.44506 | 7531 ft | 306 kts | 20° |
| 2026-05-08 00:46 | 40.63248 | -73.43817 | 7079 ft | 283 kts | 357° |
| 2026-05-08 00:46 | 40.65097 | -73.44223 | 6707 ft | 262 kts | 341° |
| 2026-05-08 00:46 | 40.66793 | -73.44982 | 6320 ft | 252 kts | 338° |
| 2026-05-08 00:46 | 40.68422 | -73.45785 | 5935 ft | 247 kts | 337° |
| 2026-05-08 00:47 | 40.69896 | -73.46907 | 5539 ft | 247 kts | 316° |
| 2026-05-08 00:47 | 40.71029 | -73.48610 | 5168 ft | 248 kts | 308° |
| 2026-05-08 00:47 | 40.72072 | -73.50414 | 4788 ft | 248 kts | 307° |
| 2026-05-08 00:47 | 40.73092 | -73.52223 | 4466 ft | 246 kts | 307° |
| 2026-05-08 00:48 | 40.74109 | -73.54042 | 4206 ft | 246 kts | 307° |
| 2026-05-08 00:48 | 40.75113 | -73.55854 | 3901 ft | 242 kts | 307° |
| 2026-05-08 00:48 | 40.76104 | -73.57627 | 3592 ft | 237 kts | 307° |
| 2026-05-08 00:48 | 40.77080 | -73.59350 | 3310 ft | 233 kts | 307° |
| 2026-05-08 00:49 | 40.78001 | -73.61070 | 3049 ft | 228 kts | 298° |
| 2026-05-08 00:49 | 40.78356 | -73.63057 | 2763 ft | 226 kts | 265° |
| 2026-05-08 00:49 | 40.77851 | -73.64985 | 2520 ft | 222 kts | 238° |
| 2026-05-08 00:49 | 40.76743 | -73.66339 | 2265 ft | 220 kts | 212° |
| 2026-05-08 00:50 | 40.75398 | -73.67219 | 2141 ft | 208 kts | 207° |
| 2026-05-08 00:50 | 40.74134 | -73.68030 | 2009 ft | 193 kts | 210° |
| 2026-05-08 00:50 | 40.72973 | -73.68868 | 1948 ft | 190 kts | 212° |
| 2026-05-08 00:50 | 40.71835 | -73.69754 | 1711 ft | 193 kts | 213° |
| 2026-05-08 00:51 | 40.70644 | -73.70693 | 1448 ft | 196 kts | 213° |
| 2026-05-08 00:51 | 40.69513 | -73.71579 | 1197 ft | 182 kts | 212° |
| 2026-05-08 00:51 | 40.68462 | -73.72403 | 936 ft | 169 kts | 212° |
| 2026-05-08 00:51 | 40.67485 | -73.73168 | 704 ft | 157 kts | 212° |
| 2026-05-08 00:52 | 40.66580 | -73.73876 | 486 ft | 148 kts | 211° |
| 2026-05-08 00:52 | 40.65699 | -73.74571 | 285 ft | 146 kts | 210° |
| 2026-05-08 00:52 | 40.64829 | -73.75254 | 123 ft | 144 kts | 210° |
| 2026-05-08 00:52 | 40.63996 | -73.75912 | 26 ft | 129 kts | 207° |
| 2026-05-08 00:53 | 40.63335 | -73.76414 | 21 ft | 83 kts | 209° |
| 2026-05-08 00:53 | 40.63012 | -73.76717 | 21 ft | 35 kts | 234° |
| 2026-05-08 00:53 | 40.62931 | -73.76897 | 21 ft | 15 kts | 253° |
| 2026-05-08 00:53 | 40.62951 | -73.77019 | 21 ft | 14 kts | 301° |
| 2026-05-08 00:54 | 40.63002 | -73.77130 | 21 ft | 14 kts | 300° |
| 2026-05-08 00:54 | 40.63055 | -73.77248 | 21 ft | 14 kts | 300° |
| 2026-05-08 00:54 | 40.63109 | -73.77366 | 21 ft | 15 kts | 301° |
| 2026-05-08 00:54 | 40.63164 | -73.77488 | 21 ft | 15 kts | 300° |
| 2026-05-08 00:55 | 40.63217 | -73.77605 | 21 ft | 14 kts | 301° |
| 2026-05-08 00:55 | 40.63271 | -73.77722 | 21 ft | 15 kts | 300° |
| 2026-05-08 00:55 | 40.63336 | -73.77827 | 21 ft | 14 kts | 351° |
| 2026-05-08 00:55 | 40.63428 | -73.77769 | 21 ft | 15 kts | 31° |
| 2026-05-08 00:56 | 40.63525 | -73.77692 | 21 ft | 17 kts | 31° |
| 2026-05-08 00:56 | 40.63634 | -73.77606 | 21 ft | 19 kts | 31° |
| 2026-05-08 00:56 | 40.63753 | -73.77513 | 21 ft | 20 kts | 30° |
| 2026-05-08 00:56 | 40.63883 | -73.77411 | 21 ft | 22 kts | 31° |
| 2026-05-08 00:57 | 40.64018 | -73.77306 | 21 ft | 23 kts | 31° |
| 2026-05-08 00:57 | 40.64163 | -73.77193 | 21 ft | 24 kts | 30° |
| 2026-05-08 00:57 | 40.64308 | -73.77080 | 21 ft | 24 kts | 31° |
| 2026-05-08 00:57 | 40.64456 | -73.76991 | 21 ft | 23 kts | 7° |
| 2026-05-08 00:58 | 40.64617 | -73.76986 | 21 ft | 22 kts | 356° |
| 2026-05-08 00:58 | 40.64749 | -73.77054 | 21 ft | 17 kts | 317° |
| 2026-05-08 00:58 | 40.64782 | -73.77148 | 21 ft | 10 kts | 249° |
| 2026-05-08 00:58 | 40.64750 | -73.77225 | 21 ft | 8 kts | 269° |
| 2026-05-08 00:59 | 40.64776 | -73.77299 | 21 ft | 8 kts | 298° |
| 2026-05-08 00:59 | 40.64772 | -73.77362 | 21 ft | 8 kts | 204° |
| 2026-05-08 00:59 | 40.64725 | -73.77400 | 21 ft | 7 kts | 233° |
| 2026-05-08 00:59 | 40.64724 | -73.77474 | 21 ft | 8 kts | 291° |
| 2026-05-08 01:00 | 40.64756 | -73.77547 | 21 ft | 9 kts | 300° |
| 2026-05-08 01:00 | 40.64792 | -73.77628 | 21 ft | 10 kts | 300° |
| 2026-05-08 01:00 | 40.64792 | -73.77670 | 21 ft | 3 kts | 205° |
| 2026-05-08 01:00 | 40.64773 | -73.77676 | 21 ft | 2 kts | 203° |
| 2026-05-08 01:01 | 40.64761 | -73.77683 | 21 ft | 0 kts | 198° |
| 2026-05-08 01:01 | 40.64760 | -73.77683 | 21 ft | 0 kts | 198° |